Terminal Aerodrome Forecast
Issued by NWS

Home | Current Version | Previous Version | Text Only | Print | Product List | Glossary On
Versions: 1 2 3 4 5 6 7 8 9 10 11 12 13 14 15 16 17 18
991
FTUS44 KTSA 211135
TAFRVS
TAF
KRVS 211135Z 2112/2212 VRB03KT P6SM SCT250
     FM212200 15005KT P6SM VCSH BKN050
     FM220300 11005KT 6SM -SHRA BKN040
      TEMPO 2203/2207 3SM -SHRA BR BKN025
     FM220700 05005KT 3SM -SHRA BR OVC012
     FM221000 01010KT 3SM -RA OVC012=

USA.gov is the U.S. government's official web portal to all federal, state and local government web resources and services.